Bloomington, Texas
Current Conditions -  °F | °C
As of 2:35 AM on Friday 28 Nov 2014 (Local Time) from KPKV Reporting Station
Clear Clear  
Wind Chill: 48°   Ceiling: Unl
Heat Index: 49°   Visibility: 10mi
Dew Point: 47°   Wind: 5mph
Humidity: 93%   Direction: 70°ENE
Pressure: 30.35"   Gusts: NA
Location:  28.65°N, 96.89°W
Report Text: KPKV 280835Z AUTO 07004KT 10SM CLR 10/09 A3035 RMK AO2 T00970086
Loading
Personal Weather Stations






























Interactive Weather Map New forecast layout! Learn more

10-Day Weather Forecast

Advertisements
Track Severe Weather on mobile